createdAt,value
2023-01-17T00:02:53.911Z,1.00
2023-01-17T00:08:14.013Z,0.90
2023-01-17T00:13:15.720Z,0.80
2023-01-17T00:18:17.670Z,1.00
2023-01-17T00:23:40.809Z,0.70
2023-01-17T00:33:45.014Z,0.80
2023-01-17T00:38:46.663Z,0.98
2023-01-17T00:44:07.156Z,0.80
2023-01-17T00:49:27.544Z,0.77
2023-01-17T00:54:48.102Z,0.80
2023-01-17T01:00:08.489Z,0.85
2023-01-17T01:05:31.063Z,0.80
2023-01-17T01:10:51.939Z,1.00
2023-01-17T01:16:12.337Z,0.73
2023-01-17T01:21:32.393Z,0.80
2023-01-17T01:26:53.321Z,1.08
2023-01-17T01:32:13.570Z,0.90
2023-01-17T01:37:15.310Z,0.80
2023-01-17T01:42:17.328Z,0.98
2023-01-17T01:47:34.269Z,0.70
2023-01-17T01:52:42.412Z,0.80
2023-01-17T01:57:47.941Z,0.95
2023-01-17T02:02:51.662Z,0.77
2023-01-17T02:08:07.642Z,0.75
2023-01-17T02:13:10.610Z,0.80
2023-01-17T02:18:43.788Z,0.90
2023-01-17T02:29:39.698Z,0.80
2023-01-17T02:34:51.216Z,0.90
2023-01-17T02:40:02.976Z,1.00
2023-01-17T02:45:05.323Z,0.90
2023-01-17T02:50:27.870Z,0.80
2023-01-17T02:55:44.603Z,0.90
2023-01-17T03:01:04.876Z,0.93
2023-01-17T03:06:17.083Z,1.00
2023-01-17T03:11:19.230Z,1.00
2023-01-17T03:16:22.351Z,1.30
2023-01-17T03:21:24.928Z,1.20
2023-01-17T03:26:26.583Z,1.35
2023-01-17T03:31:28.295Z,9.57
2023-01-17T03:36:29.981Z,1.40
2023-01-17T03:41:32.297Z,1.40
2023-01-17T03:46:33.962Z,1.17
2023-01-17T03:51:35.638Z,1.77
2023-01-17T03:56:37.423Z,1.10
2023-01-17T04:01:39.453Z,1.30
2023-01-17T04:06:41.914Z,1.08
2023-01-17T04:11:43.597Z,0.90
2023-01-17T04:16:46.013Z,1.30
2023-01-17T04:21:47.837Z,1.45
2023-01-17T04:26:49.541Z,1.00
2023-01-17T04:31:51.459Z,1.98
2023-01-17T04:36:53.171Z,7.90
2023-01-17T04:46:57.683Z,1.30
2023-01-17T04:51:59.556Z,1.17
2023-01-17T04:57:01.154Z,1.23
2023-01-17T05:02:02.832Z,1.30
2023-01-17T05:07:05.542Z,1.20
2023-01-17T05:12:07.191Z,1.27
2023-01-17T05:17:11.132Z,1.10
2023-01-17T05:22:16.791Z,1.10
2023-01-17T05:27:18.448Z,1.40
2023-01-17T05:32:20.103Z,1.30
2023-01-17T05:37:21.861Z,1.33
2023-01-17T05:42:23.579Z,1.25
2023-01-17T05:47:25.246Z,3.88
2023-01-17T05:52:26.981Z,1.70
2023-01-17T05:57:28.723Z,0.90
2023-01-17T06:02:30.412Z,1.00
2023-01-17T06:07:32.808Z,1.90
2023-01-17T06:12:34.890Z,1.92
2023-01-17T06:17:37.078Z,1.90
2023-01-17T06:22:39.114Z,2.03
2023-01-17T06:27:40.804Z,2.03
2023-01-17T06:32:42.642Z,1.23
2023-01-17T06:37:44.335Z,1.20
2023-01-17T06:42:46.069Z,1.10
2023-01-17T06:47:47.770Z,1.20
2023-01-17T06:53:03.807Z,1.07
2023-01-17T06:58:05.681Z,1.10
2023-01-17T07:03:16.503Z,1.20
2023-01-17T07:08:19.447Z,1.88
2023-01-17T07:13:21.151Z,1.83
2023-01-17T07:18:25.487Z,1.58
2023-01-17T07:23:27.220Z,1.50
2023-01-17T07:28:29.178Z,1.37
2023-01-17T07:33:30.774Z,1.50
2023-01-17T07:38:32.742Z,1.40
2023-01-17T07:43:35.428Z,2.17
2023-01-17T07:53:38.765Z,3.67
2023-01-17T07:58:40.476Z,1.60
2023-01-17T08:03:42.369Z,1.47
2023-01-17T08:08:45.008Z,1.30
2023-01-17T08:18:50.424Z,1.25
2023-01-17T08:23:52.744Z,1.65
2023-01-17T08:28:56.584Z,1.67
2023-01-17T08:33:58.436Z,1.50
2023-01-17T08:39:00.146Z,1.70
2023-01-17T08:44:02.715Z,1.80
2023-01-17T08:49:04.804Z,1.70
2023-01-17T08:54:06.663Z,1.70
2023-01-17T08:59:12.036Z,1.70
2023-01-17T09:04:14.769Z,2.22
2023-01-17T09:09:17.573Z,1.70
2023-01-17T09:19:21.112Z,1.40
2023-01-17T09:24:22.939Z,1.50
2023-01-17T09:29:24.840Z,1.43
2023-01-17T09:34:26.759Z,1.42
2023-01-17T09:39:28.422Z,1.40
2023-01-17T09:44:42.985Z,1.45
2023-01-17T09:49:48.538Z,1.67
2023-01-17T09:54:51.443Z,1.60
2023-01-17T10:05:55.005Z,1.60
2023-01-17T10:11:24.726Z,1.30
2023-01-17T10:16:32.295Z,1.38
2023-01-17T10:21:52.395Z,1.60
2023-01-17T10:26:56.314Z,1.40
2023-01-17T10:31:59.751Z,1.40
2023-01-17T10:37:31.028Z,1.10
2023-01-17T10:42:44.180Z,1.85
2023-01-17T10:47:51.375Z,1.70
2023-01-17T10:53:09.896Z,1.35
2023-01-17T10:58:13.154Z,1.40
2023-01-17T11:03:17.455Z,1.10
2023-01-17T11:08:21.939Z,1.10
2023-01-17T11:13:28.548Z,1.08
2023-01-17T11:18:33.320Z,1.58
2023-01-17T11:23:35.797Z,1.20
2023-01-17T11:28:41.444Z,1.00
2023-01-17T11:33:47.704Z,1.20
2023-01-17T11:39:17.439Z,1.08
2023-01-17T11:44:23.022Z,1.10
2023-01-17T11:49:25.636Z,0.90
2023-01-17T11:54:33.404Z,1.10
2023-01-17T11:59:40.113Z,1.30
2023-01-17T12:05:27.466Z,1.35
2023-01-17T12:10:52.410Z,1.20
2023-01-17T12:16:22.825Z,1.20
2023-01-17T12:21:39.790Z,1.13
2023-01-17T12:27:17.101Z,1.10
2023-01-17T12:32:31.861Z,1.08
2023-01-17T12:37:36.904Z,1.13
2023-01-17T12:42:43.818Z,1.58
2023-01-17T12:47:54.355Z,1.77
2023-01-17T12:53:02.514Z,1.50
2023-01-17T12:58:07.884Z,1.30
2023-01-17T13:03:16.843Z,1.70
2023-01-17T13:08:27.550Z,2.05
2023-01-17T13:13:31.257Z,1.83
2023-01-17T13:18:35.681Z,1.60
2023-01-17T13:23:59.301Z,1.30
2023-01-17T13:29:13.156Z,1.45
2023-01-17T13:34:47.071Z,1.48
2023-01-17T13:40:06.109Z,1.58
2023-01-17T13:45:17.623Z,1.30
2023-01-17T13:50:38.232Z,1.10
2023-01-17T13:55:53.146Z,1.35
2023-01-17T14:00:55.608Z,1.40
2023-01-17T14:05:57.349Z,1.40
2023-01-17T14:11:09.814Z,1.40
2023-01-17T14:16:20.993Z,1.70
2023-01-17T14:21:32.266Z,1.40
2023-01-17T14:26:43.147Z,1.60
2023-01-17T14:31:45.326Z,1.45
2023-01-17T14:36:47.090Z,1.30
2023-01-17T14:41:48.987Z,1.40
2023-01-17T14:46:50.899Z,1.50
2023-01-17T14:52:06.277Z,1.23
2023-01-17T14:57:15.372Z,0.95
2023-01-17T15:02:18.536Z,1.27
2023-01-17T15:07:20.479Z,1.30
2023-01-17T15:12:22.194Z,1.25
2023-01-17T15:17:24.809Z,1.58
2023-01-17T15:22:26.752Z,1.70
2023-01-17T15:27:28.638Z,1.50
2023-01-17T15:32:33.205Z,1.50
2023-01-17T15:37:37.420Z,1.50
2023-01-17T15:42:43.262Z,1.45
2023-01-17T15:47:45.078Z,1.90
2023-01-17T15:52:49.138Z,1.90
2023-01-17T15:57:50.889Z,2.30
2023-01-17T16:02:58.645Z,2.55
2023-01-17T16:08:04.196Z,2.05
2023-01-17T16:13:07.667Z,4.50
2023-01-17T16:18:24.785Z,2.80
2023-01-17T16:23:27.777Z,3.90
2023-01-17T16:28:29.480Z,2.45
2023-01-17T16:33:31.103Z,1.83
2023-01-17T16:38:32.836Z,2.00
2023-01-17T16:43:34.680Z,2.42
2023-01-17T16:48:37.471Z,2.22
2023-01-17T16:58:41.433Z,2.25
2023-01-17T17:03:44.133Z,2.00
2023-01-17T17:08:45.892Z,1.92
2023-01-17T17:13:49.231Z,2.50
2023-01-17T17:18:58.849Z,2.25
2023-01-17T17:24:01.829Z,2.17
2023-01-17T17:29:04.782Z,2.10
2023-01-17T17:34:09.863Z,2.53
2023-01-17T17:39:14.832Z,3.10
2023-01-17T17:44:17.709Z,3.60
2023-01-17T17:49:22.179Z,4.53
2023-01-17T17:54:24.734Z,4.43
2023-01-17T17:59:26.564Z,3.38
2023-01-17T18:04:28.301Z,5.40
2023-01-17T18:09:30.419Z,4.23
2023-01-17T18:14:32.302Z,6.90
2023-01-17T18:19:33.994Z,5.70
2023-01-17T18:24:35.702Z,5.07
2023-01-17T18:29:37.480Z,7.32
2023-01-17T18:34:41.433Z,4.40
2023-01-17T18:39:43.768Z,4.50
2023-01-17T18:44:45.553Z,2.80
2023-01-17T18:49:47.362Z,5.00
2023-01-17T18:54:49.015Z,3.67
2023-01-17T18:59:50.948Z,3.43
2023-01-17T19:04:52.602Z,3.08
2023-01-17T19:09:54.310Z,3.70
2023-01-17T19:14:55.985Z,4.88
2023-01-17T19:19:57.704Z,5.35
2023-01-17T19:24:59.461Z,4.53
2023-01-17T19:30:01.134Z,4.25
2023-01-17T19:35:02.865Z,3.70
2023-01-17T19:40:05.047Z,4.00
2023-01-17T19:45:12.159Z,4.85
2023-01-17T19:50:14.838Z,3.85
2023-01-17T19:55:17.637Z,4.88
2023-01-17T20:05:22.417Z,7.13
2023-01-17T20:10:25.131Z,5.00
2023-01-17T20:20:32.436Z,6.13
2023-01-17T20:25:34.101Z,6.10
2023-01-17T20:30:35.778Z,7.18
2023-01-17T20:35:37.601Z,6.97
2023-01-17T20:40:39.289Z,5.47
2023-01-17T20:45:41.103Z,4.90
2023-01-17T20:50:42.837Z,7.10
2023-01-17T20:55:44.507Z,5.82
2023-01-17T21:00:46.191Z,4.70
2023-01-17T21:05:47.860Z,6.25
2023-01-17T21:10:49.980Z,7.15
2023-01-17T21:15:52.540Z,8.30
2023-01-17T21:20:54.241Z,8.18
2023-01-17T21:25:58.865Z,5.95
2023-01-17T21:31:00.710Z,5.10
2023-01-17T21:36:08.388Z,5.13
2023-01-17T21:41:10.089Z,5.95
2023-01-17T21:46:11.956Z,5.20
2023-01-17T21:51:13.859Z,6.33
2023-01-17T21:56:34.683Z,5.30
2023-01-17T22:01:36.466Z,4.82
2023-01-17T22:06:41.102Z,4.97
2023-01-17T22:11:42.748Z,4.03
2023-01-17T22:16:44.381Z,5.20
2023-01-17T22:21:46.020Z,5.35
2023-01-17T22:26:47.816Z,4.30
2023-01-17T22:31:49.517Z,4.10
2023-01-17T22:36:51.172Z,3.92
2023-01-17T22:41:52.805Z,4.20
2023-01-17T22:46:54.511Z,5.07
2023-01-17T22:51:56.230Z,5.53
2023-01-17T22:56:58.781Z,4.27
2023-01-17T23:02:00.587Z,4.07
2023-01-17T23:07:02.335Z,7.22
2023-01-17T23:12:03.937Z,8.20
2023-01-17T23:17:24.466Z,9.37
2023-01-17T23:22:28.964Z,10.32
2023-01-17T23:27:59.268Z,10.43
2023-01-17T23:33:04.002Z,10.75
2023-01-17T23:38:25.034Z,11.13
2023-01-17T23:43:26.668Z,12.52
2023-01-17T23:48:28.785Z,12.87
2023-01-17T23:53:30.522Z,12.15
2023-01-17T23:58:33.412Z,11.60
